Time;durP1;ratioP1;P1;durP2;ratioP2;P2;SDS_P1;SDS_P2;PMS_P1;PMS_P2;Temp;Humidity;BMP_temperature;BMP_pressure;BME280_temperature;BME280_humidity;BME280_pressure;Samples;Min_cycle;Max_cycle;Signal;HPM_P1;HPM_P2
2022/01/23 00:02:24;;;;;;;;;;;2.60;99.90;;;;;;4970954;28;19925;-83
2022/01/23 00:04:49;;;;;;;;;;;2.60;99.90;;;;;;4970393;28;19921;-83
2022/01/23 00:07:16;;;;;;;;;;;2.60;99.90;;;;;;4988711;28;19918;-82
2022/01/23 00:09:42;;;;;;;;;;;2.70;99.90;;;;;;5005349;28;19921;-83
2022/01/23 00:12:14;;;;;;;;;;;2.60;99.90;;;;;;4989658;28;19914;-83
2022/01/23 00:17:25;;;;;;;;;;;2.60;99.90;;;;;;4989729;28;19918;-84
2022/01/23 00:19:52;;;;;;;;;;;2.60;99.90;;;;;;5005136;28;19914;-84
2022/01/23 00:22:25;;;;;;;;;;;2.60;99.90;;;;;;4990854;28;20000;-82
2022/01/23 00:32:44;;;;;;;;;;;2.60;99.90;;;;;;4992281;28;19975;-85
2022/01/23 00:35:11;;;;;;;;;;;2.60;99.90;;;;;;4970077;28;19929;-84
2022/01/23 00:37:45;;;;;;;;;;;2.60;99.90;;;;;;4978769;28;20424;-85
2022/01/23 00:40:11;;;;;;;;;;;2.60;99.90;;;;;;4974938;28;20017;-86
2022/01/23 00:42:37;;;;;;;;;;;2.60;99.90;;;;;;4975865;28;19941;-85
2022/01/23 00:45:25;;;;;;;;;;;2.60;99.90;;;;;;4975365;28;20389;-85
2022/01/23 00:47:54;;;;;;;;;;;2.60;99.90;;;;;;5011205;28;20350;-85
2022/01/23 00:50:20;;;;;;;;;;;2.60;99.90;;;;;;5003786;28;19918;-86
2022/01/23 00:52:45;;;;;;;;;;;2.60;99.90;;;;;;4988132;28;19920;-86
2022/01/23 00:55:11;;;;;;;;;;;2.60;99.90;;;;;;4988009;28;20024;-85
2022/01/23 00:57:37;;;;;;;;;;;2.60;99.90;;;;;;4990151;28;19917;-83
2022/01/23 01:00:06;;;;;;;;;;;2.50;99.90;;;;;;4977667;28;20291;-84
2022/01/23 01:02:32;;;;;;;;;;;2.50;99.90;;;;;;4991544;28;19924;-84
2022/01/23 01:04:58;;;;;;;;;;;2.50;99.90;;;;;;4992991;28;20001;-84
2022/01/23 01:07:24;;;;;;;;;;;2.50;99.90;;;;;;4975084;28;20012;-84
2022/01/23 01:09:52;;;;;;;;;;;2.50;99.90;;;;;;4974735;28;20009;-83
2022/01/23 01:12:23;;;;;;;;;;;2.50;99.90;;;;;;4991307;28;19914;-85
2022/01/23 01:15:23;;;;;;;;;;;2.50;99.90;;;;;;4976852;28;20071;-85
2022/01/23 01:30:09;;;;;;;;;;;2.50;99.90;;;;;;4972171;28;19918;-84
2022/01/23 01:31:44;;;;;;;;;;;2.50;99.90;;;;;;4989334;28;19914;-85
2022/01/23 01:35:05;;;;;;;;;;;2.50;99.90;;;;;;4994611;28;19929;-85
2022/01/23 01:36:56;;;;;;;;;;;2.60;99.90;;;;;;4982997;28;19976;-85
2022/01/23 01:39:23;;;;;;;;;;;2.60;99.90;;;;;;4985942;28;19918;-83
2022/01/23 01:41:49;;;;;;;;;;;2.60;99.90;;;;;;4990752;28;19914;-85
2022/01/23 01:44:15;;;;;;;;;;;2.60;99.90;;;;;;4990922;28;19920;-85
2022/01/23 01:47:07;;;;;;;;;;;2.60;99.90;;;;;;4981906;28;19918;-85
2022/01/23 01:49:37;;;;;;;;;;;2.60;99.90;;;;;;4990134;28;19960;-84
2022/01/23 01:52:08;;;;;;;;;;;2.60;99.90;;;;;;5009473;28;20300;-84
2022/01/23 01:55:25;;;;;;;;;;;2.60;99.90;;;;;;5006845;28;19918;-84
2022/01/23 01:57:50;;;;;;;;;;;2.60;99.90;;;;;;4996857;28;19914;-84
2022/01/23 02:02:45;;;;;;;;;;;2.60;99.90;;;;;;4988973;28;19987;-86
2022/01/23 02:09:06;;;;;;;;;;;2.60;99.90;;;;;;4976207;28;19924;-84
2022/01/23 02:12:01;;;;;;;;;;;2.60;99.90;;;;;;5015000;28;19991;-86
2022/01/23 02:50:44;;;;;;;;;;;2.60;99.90;;;;;;5009471;28;19922;-84
2022/01/23 02:56:20;;;;;;;;;;;2.60;99.90;;;;;;5003135;28;19918;-86
2022/01/23 03:02:43;;;;;;;;;;;2.50;99.90;;;;;;4998203;28;19928;-85
2022/01/23 03:05:36;;;;;;;;;;;2.60;99.90;;;;;;4981183;28;19914;-85
2022/01/23 03:10:42;;;;;;;;;;;2.60;99.90;;;;;;4998168;28;19968;-84
2022/01/23 03:26:38;;;;;;;;;;;2.70;99.90;;;;;;4976959;28;19921;-85
2022/01/23 03:34:16;;;;;;;;;;;2.60;99.90;;;;;;5009229;28;19917;-84
2022/01/23 03:36:42;;;;;;;;;;;2.60;99.90;;;;;;4982488;28;19949;-84
2022/01/23 03:39:09;;;;;;;;;;;2.70;99.90;;;;;;4987969;28;19964;-84
2022/01/23 03:41:36;;;;;;;;;;;2.70;99.90;;;;;;4981444;28;19915;-85
2022/01/23 03:44:04;;;;;;;;;;;2.70;99.90;;;;;;4976055;28;20325;-84
2022/01/23 03:46:46;;;;;;;;;;;2.60;99.90;;;;;;4976175;28;19914;-83
2022/01/23 03:49:31;;;;;;;;;;;2.60;99.90;;;;;;4976499;28;20004;-85
2022/01/23 03:52:06;;;;;;;;;;;2.60;99.90;;;;;;4993765;28;19940;-84
2022/01/23 03:54:34;;;;;;;;;;;2.60;99.90;;;;;;5001281;28;19921;-84
2022/01/23 03:57:00;;;;;;;;;;;2.60;99.90;;;;;;5009046;28;19913;-85
2022/01/23 03:59:28;;;;;;;;;;;2.60;99.90;;;;;;5000802;28;20408;-85
2022/01/23 04:01:54;;;;;;;;;;;2.60;99.90;;;;;;4992710;28;19937;-84
2022/01/23 04:06:54;;;;;;;;;;;2.60;99.90;;;;;;4996167;28;19921;-84
2022/01/23 04:09:39;;;;;;;;;;;2.60;99.90;;;;;;4974669;28;19917;-85
2022/01/23 04:12:08;;;;;;;;;;;2.60;99.90;;;;;;5011454;28;19926;-84
2022/01/23 04:15:18;;;;;;;;;;;2.60;99.90;;;;;;5013684;28;19918;-85
2022/01/23 05:00:33;;;;;;;;;;;2.60;99.90;;;;;;4981208;28;20389;-84
2022/01/23 05:03:46;;;;;;;;;;;2.60;99.90;;;;;;4972554;28;20416;-84
2022/01/23 05:06:30;;;;;;;;;;;2.60;99.90;;;;;;4989765;28;19914;-84
2022/01/23 05:09:09;;;;;;;;;;;2.60;99.90;;;;;;4958825;28;19930;-83
2022/01/23 05:11:48;;;;;;;;;;;2.60;99.90;;;;;;4975859;28;20300;-85
2022/01/23 05:14:27;;;;;;;;;;;2.60;99.90;;;;;;4988569;28;19922;-84
2022/01/23 05:16:53;;;;;;;;;;;2.60;99.90;;;;;;5001807;28;19987;-84
2022/01/23 05:19:20;;;;;;;;;;;2.70;99.90;;;;;;4972095;28;19961;-84
2022/01/23 05:24:16;;;;;;;;;;;2.70;99.90;;;;;;4992294;28;19957;-85
2022/01/23 05:26:45;;;;;;;;;;;2.70;99.90;;;;;;5007769;28;19964;-84
2022/01/23 05:29:11;;;;;;;;;;;2.70;99.90;;;;;;4991391;28;19976;-84
2022/01/23 05:31:36;;;;;;;;;;;2.70;99.90;;;;;;4997489;28;19913;-84
2022/01/23 05:34:04;;;;;;;;;;;2.70;99.90;;;;;;4991505;28;19996;-84
2022/01/23 05:36:30;;;;;;;;;;;2.70;99.90;;;;;;5024046;28;19949;-85
2022/01/23 05:38:56;;;;;;;;;;;2.70;99.90;;;;;;5024180;28;19922;-84
2022/01/23 05:41:22;;;;;;;;;;;2.70;99.90;;;;;;5007686;28;19977;-85
2022/01/23 05:43:48;;;;;;;;;;;2.70;99.90;;;;;;4975172;28;19922;-84
2022/01/23 05:46:15;;;;;;;;;;;2.70;99.90;;;;;;4992206;28;19917;-84
2022/01/23 05:49:00;;;;;;;;;;;2.70;99.90;;;;;;4977548;28;19921;-84
2022/01/23 05:51:52;;;;;;;;;;;2.70;99.90;;;;;;4989562;28;19969;-84
2022/01/23 05:54:36;;;;;;;;;;;2.70;99.90;;;;;;4977963;28;19928;-84
2022/01/23 05:57:37;;;;;;;;;;;2.70;99.90;;;;;;4994995;28;19913;-84
2022/01/23 06:00:10;;;;;;;;;;;2.70;99.90;;;;;;4975603;28;19918;-84
2022/01/23 06:02:50;;;;;;;;;;;2.70;99.90;;;;;;4992788;28;19914;-84
2022/01/23 06:05:16;;;;;;;;;;;2.70;99.90;;;;;;4991474;28;19925;-84
2022/01/23 06:07:51;;;;;;;;;;;2.70;99.90;;;;;;5011586;28;19957;-84
2022/01/23 06:10:24;;;;;;;;;;;2.70;99.90;;;;;;4980053;28;19986;-84
2022/01/23 06:12:49;;;;;;;;;;;2.70;99.90;;;;;;4995347;28;19920;-85
2022/01/23 06:15:15;;;;;;;;;;;2.70;99.90;;;;;;4984803;28;19918;-84
2022/01/23 06:17:42;;;;;;;;;;;2.70;99.90;;;;;;4978788;28;20407;-84
2022/01/23 06:20:26;;;;;;;;;;;2.70;99.90;;;;;;4979455;28;19924;-84
2022/01/23 06:23:12;;;;;;;;;;;2.70;99.90;;;;;;4995000;28;19918;-84
2022/01/23 06:25:57;;;;;;;;;;;2.70;99.90;;;;;;4994671;28;19956;-84
2022/01/23 06:28:39;;;;;;;;;;;2.70;99.90;;;;;;4994523;28;20273;-84
2022/01/23 06:31:04;;;;;;;;;;;2.70;99.90;;;;;;5011382;28;19921;-84
2022/01/23 06:33:30;;;;;;;;;;;2.70;99.90;;;;;;4978842;28;20405;-84
2022/01/23 06:35:56;;;;;;;;;;;2.70;99.90;;;;;;4994757;28;19922;-84
2022/01/23 06:38:21;;;;;;;;;;;2.70;99.90;;;;;;4994741;28;19914;-84
2022/01/23 06:40:47;;;;;;;;;;;2.70;99.90;;;;;;4978321;28;19918;-84
2022/01/23 06:43:21;;;;;;;;;;;2.70;99.90;;;;;;4979484;28;20308;-84
2022/01/23 06:46:01;;;;;;;;;;;2.70;99.90;;;;;;5010580;28;19914;-84
2022/01/23 06:48:27;;;;;;;;;;;2.70;99.90;;;;;;4978177;28;20482;-84
2022/01/23 06:50:53;;;;;;;;;;;2.70;99.90;;;;;;5010807;28;20008;-84
2022/01/23 06:53:20;;;;;;;;;;;2.70;99.90;;;;;;4994883;28;20442;-84
2022/01/23 06:55:46;;;;;;;;;;;2.70;99.90;;;;;;4994290;28;19926;-84
2022/01/23 06:58:11;;;;;;;;;;;2.80;99.90;;;;;;4978089;28;20400;-85
2022/01/23 07:00:37;;;;;;;;;;;2.80;99.90;;;;;;4977707;28;19914;-84
2022/01/23 07:03:15;;;;;;;;;;;2.70;99.90;;;;;;4980242;28;19918;-84
2022/01/23 07:05:59;;;;;;;;;;;2.70;99.90;;;;;;4994261;28;19925;-84
2022/01/23 07:08:43;;;;;;;;;;;2.70;99.90;;;;;;4978161;28;19984;-84
2022/01/23 07:11:15;;;;;;;;;;;2.70;99.90;;;;;;4990108;28;19918;-84
2022/01/23 07:13:59;;;;;;;;;;;2.70;99.90;;;;;;5007280;28;19922;-84
2022/01/23 07:16:37;;;;;;;;;;;2.70;99.90;;;;;;4993674;28;19914;-84
2022/01/23 07:19:12;;;;;;;;;;;2.70;99.90;;;;;;5009266;28;19918;-84
2022/01/23 07:21:46;;;;;;;;;;;2.70;99.90;;;;;;4990142;28;20009;-84
2022/01/23 07:24:12;;;;;;;;;;;2.70;99.90;;;;;;4961580;28;19980;-84
2022/01/23 07:26:37;;;;;;;;;;;2.70;99.90;;;;;;4977566;28;20643;-84
2022/01/23 07:29:06;;;;;;;;;;;2.80;99.90;;;;;;4989638;28;22214;-84
2022/01/23 07:34:02;;;;;;;;;;;2.80;99.90;;;;;;4975415;28;20384;-84
2022/01/23 07:36:29;;;;;;;;;;;2.80;99.90;;;;;;4996012;28;20005;-83
2022/01/23 07:38:55;;;;;;;;;;;2.80;99.90;;;;;;5009798;28;20377;-84
2022/01/23 07:41:32;;;;;;;;;;;2.80;99.90;;;;;;4978907;28;19921;-84
2022/01/23 07:44:18;;;;;;;;;;;2.80;99.90;;;;;;4995483;28;19961;-84
2022/01/23 07:47:04;;;;;;;;;;;2.80;99.90;;;;;;4976928;28;19925;-84
2022/01/23 07:49:53;;;;;;;;;;;2.90;99.90;;;;;;4976914;28;20005;-83
2022/01/23 07:52:39;;;;;;;;;;;2.90;99.90;;;;;;4983475;28;20405;-84
2022/01/23 07:55:17;;;;;;;;;;;2.90;99.90;;;;;;4987332;28;19922;-84
2022/01/23 07:58:12;;;;;;;;;;;2.90;99.90;;;;;;4993528;28;19968;-84
2022/01/23 08:00:58;;;;;;;;;;;2.90;99.90;;;;;;4996034;28;19949;-84
2022/01/23 08:03:24;;;;;;;;;;;3.00;99.90;;;;;;4974571;28;20061;-85
2022/01/23 08:06:13;;;;;;;;;;;3.00;99.90;;;;;;4981312;28;20381;-84
2022/01/23 08:08:42;;;;;;;;;;;3.00;99.90;;;;;;4958391;28;19987;-84
2022/01/23 08:11:11;;;;;;;;;;;3.10;99.90;;;;;;4966362;28;19969;-84
2022/01/23 08:13:37;;;;;;;;;;;3.10;99.90;;;;;;4992409;28;19918;-84
2022/01/23 08:16:02;;;;;;;;;;;3.10;99.90;;;;;;4976335;28;19921;-84
2022/01/23 08:18:28;;;;;;;;;;;3.20;99.90;;;;;;4959899;28;19972;-85
2022/01/23 08:20:54;;;;;;;;;;;3.20;99.90;;;;;;4988734;28;19918;-84
2022/01/23 08:23:20;;;;;;;;;;;3.20;99.90;;;;;;4976562;28;19921;-84
2022/01/23 08:25:46;;;;;;;;;;;3.20;99.90;;;;;;4991045;28;20018;-87
2022/01/23 08:28:12;;;;;;;;;;;3.20;99.90;;;;;;4986373;28;20013;-84
2022/01/23 08:30:37;;;;;;;;;;;3.20;99.90;;;;;;4991185;28;19918;-84
2022/01/23 08:33:03;;;;;;;;;;;3.20;99.90;;;;;;4991013;28;19932;-84
2022/01/23 08:35:29;;;;;;;;;;;3.30;99.90;;;;;;5006773;28;20433;-83
2022/01/23 08:38:03;;;;;;;;;;;3.30;99.90;;;;;;5002436;28;19953;-84
2022/01/23 08:43:07;;;;;;;;;;;3.40;99.90;;;;;;4981413;28;20004;-84
2022/01/23 08:45:33;;;;;;;;;;;3.40;99.90;;;;;;4982265;28;19960;-83
2022/01/23 08:47:59;;;;;;;;;;;3.40;99.90;;;;;;4978662;28;19918;-84
2022/01/23 08:50:25;;;;;;;;;;;3.50;99.90;;;;;;4974656;28;19918;-84
2022/01/23 08:52:51;;;;;;;;;;;3.50;99.90;;;;;;4984776;28;20000;-83
2022/01/23 08:55:17;;;;;;;;;;;3.60;99.90;;;;;;4995038;28;20009;-85
2022/01/23 08:57:43;;;;;;;;;;;3.60;99.90;;;;;;4979776;28;19918;-85
2022/01/23 09:00:08;;;;;;;;;;;3.70;99.90;;;;;;4952843;28;19918;-84
2022/01/23 09:02:34;;;;;;;;;;;3.70;99.90;;;;;;4975119;28;19925;-85
2022/01/23 09:05:00;;;;;;;;;;;3.80;99.90;;;;;;4990699;28;20020;-84
2022/01/23 09:07:26;;;;;;;;;;;3.80;99.90;;;;;;4987213;28;20381;-83
2022/01/23 09:09:54;;;;;;;;;;;3.90;99.90;;;;;;4975015;28;19921;-84
2022/01/23 09:14:48;;;;;;;;;;;4.10;99.90;;;;;;4983610;28;19929;-85
2022/01/23 09:17:14;;;;;;;;;;;4.10;99.90;;;;;;4981974;28;19914;-83
2022/01/23 09:19:40;;;;;;;;;;;4.20;99.90;;;;;;4990795;28;19913;-84
2022/01/23 09:22:05;;;;;;;;;;;4.20;99.90;;;;;;4983209;28;19918;-85
2022/01/23 09:24:31;;;;;;;;;;;4.20;99.90;;;;;;4974478;28;19967;-84
2022/01/23 09:27:02;;;;;;;;;;;4.30;99.90;;;;;;4990937;28;19914;-84
2022/01/23 09:29:36;;;;;;;;;;;4.30;99.90;;;;;;4971218;28;20312;-84
2022/01/23 09:32:05;;;;;;;;;;;4.40;99.90;;;;;;4971447;28;19918;-84
2022/01/23 09:34:32;;;;;;;;;;;4.40;99.90;;;;;;4990682;28;20464;-84
2022/01/23 09:36:59;;;;;;;;;;;4.40;99.90;;;;;;4987696;28;19914;-86
2022/01/23 09:39:25;;;;;;;;;;;4.50;99.90;;;;;;5003742;28;19914;-85
2022/01/23 09:41:57;;;;;;;;;;;4.50;99.90;;;;;;4971687;28;19920;-85
2022/01/23 09:44:23;;;;;;;;;;;4.50;99.90;;;;;;4990862;28;19914;-84
2022/01/23 09:46:49;;;;;;;;;;;4.60;99.90;;;;;;4974268;28;20002;-84
2022/01/23 09:49:15;;;;;;;;;;;4.60;99.90;;;;;;4974121;28;19946;-85
2022/01/23 09:51:42;;;;;;;;;;;4.70;99.90;;;;;;4970612;28;19918;-83
2022/01/23 09:54:10;;;;;;;;;;;4.70;99.90;;;;;;5018751;28;19945;-86
2022/01/23 09:56:36;;;;;;;;;;;4.80;99.90;;;;;;4990293;28;19914;-85
2022/01/23 09:59:02;;;;;;;;;;;4.90;99.90;;;;;;4977602;28;20396;-85
2022/01/23 10:01:28;;;;;;;;;;;4.90;99.90;;;;;;4990660;28;19914;-83
2022/01/23 10:03:53;;;;;;;;;;;4.80;99.90;;;;;;4958303;28;19933;-83
2022/01/23 10:06:19;;;;;;;;;;;4.90;99.90;;;;;;4990478;28;19936;-85
2022/01/23 10:08:45;;;;;;;;;;;4.90;99.90;;;;;;4974364;28;20016;-84
2022/01/23 10:11:13;;;;;;;;;;;5.00;99.90;;;;;;4998459;28;20377;-84
2022/01/23 10:13:40;;;;;;;;;;;5.00;99.90;;;;;;4951197;28;19961;-84
2022/01/23 10:16:05;;;;;;;;;;;5.00;99.90;;;;;;4971118;28;19915;-84
2022/01/23 10:18:31;;;;;;;;;;;5.10;99.90;;;;;;4985388;28;19968;-85
2022/01/23 10:20:57;;;;;;;;;;;5.00;99.90;;;;;;4974070;28;19921;-85
2022/01/23 10:23:23;;;;;;;;;;;5.00;99.90;;;;;;4990359;28;19922;-85
2022/01/23 10:25:51;;;;;;;;;;;5.00;99.90;;;;;;4962698;28;19918;-84
2022/01/23 10:28:19;;;;;;;;;;;4.90;99.90;;;;;;4977877;28;19921;-84
2022/01/23 10:30:50;;;;;;;;;;;4.80;99.90;;;;;;4988386;28;19977;-85
2022/01/23 10:33:32;;;;;;;;;;;4.80;99.90;;;;;;4970989;28;19914;-84
2022/01/23 10:36:15;;;;;;;;;;;4.80;99.90;;;;;;4986626;28;19976;-84
2022/01/23 10:38:41;;;;;;;;;;;4.90;99.90;;;;;;4954664;28;19924;-85
2022/01/23 10:42:12;;;;;;;;;;;4.90;99.90;;;;;;4971812;28;20288;-85
2022/01/23 10:47:30;;;;;;;;;;;5.00;99.90;;;;;;4979481;28;19914;-85
2022/01/23 10:49:58;;;;;;;;;;;5.00;99.90;;;;;;4972040;28;20308;-84
2022/01/23 10:52:26;;;;;;;;;;;5.00;99.90;;;;;;4984677;28;20024;-85
2022/01/23 10:54:51;;;;;;;;;;;5.10;99.90;;;;;;5003450;28;19970;-84
2022/01/23 10:57:17;;;;;;;;;;;5.10;99.90;;;;;;4990530;28;20423;-84
2022/01/23 10:59:45;;;;;;;;;;;5.10;99.90;;;;;;4975976;28;19933;-82
2022/01/23 11:02:16;;;;;;;;;;;5.10;99.90;;;;;;5007104;28;20056;-84
2022/01/23 11:05:01;;;;;;;;;;;5.10;99.90;;;;;;4976667;28;19936;-84
2022/01/23 11:07:28;;;;;;;;;;;5.10;99.90;;;;;;4992673;28;19933;-84
2022/01/23 11:10:05;;;;;;;;;;;5.00;99.90;;;;;;4991135;28;19913;-84
2022/01/23 11:18:10;;;;;;;;;;;4.90;99.90;;;;;;4994795;28;19914;-84
2022/01/23 11:20:42;;;;;;;;;;;4.80;99.90;;;;;;4992865;28;19996;-84
2022/01/23 11:23:22;;;;;;;;;;;4.80;99.90;;;;;;4993443;28;19918;-84
2022/01/23 11:25:57;;;;;;;;;;;4.80;99.90;;;;;;4993026;28;19955;-83
2022/01/23 11:28:36;;;;;;;;;;;4.80;99.90;;;;;;5009753;28;19913;-84
2022/01/23 11:31:03;;;;;;;;;;;4.70;99.90;;;;;;5009551;28;19936;-83
2022/01/23 11:33:29;;;;;;;;;;;4.70;99.90;;;;;;4982747;28;20361;-84
2022/01/23 11:35:55;;;;;;;;;;;4.80;99.90;;;;;;4992445;28;19965;-84
2022/01/23 11:38:22;;;;;;;;;;;4.80;99.90;;;;;;4976208;28;20377;-84
2022/01/23 11:54:37;;;;;;;;;;;4.90;99.90;;;;;;4993169;28;19918;-84
2022/01/23 11:57:03;;;;;;;;;;;4.80;99.90;;;;;;4992043;28;19914;-84
2022/01/23 12:00:00;;;;;;;;;;;4.80;99.90;;;;;;4984192;28;19961;-85
2022/01/23 12:02:30;;;;;;;;;;;4.80;99.90;;;;;;4975230;28;19965;-86
2022/01/23 12:05:16;;;;;;;;;;;4.70;99.90;;;;;;4975787;28;20281;-84
2022/01/23 12:07:43;;;;;;;;;;;4.60;99.90;;;;;;4975591;28;20295;-86
2022/01/23 12:10:11;;;;;;;;;;;4.60;99.90;;;;;;5024384;28;20024;-86
2022/01/23 12:12:41;;;;;;;;;;;4.50;99.90;;;;;;4991879;28;20261;-84
2022/01/23 12:18:15;;;;;;;;;;;4.60;99.90;;;;;;4996149;28;19918;-83
2022/01/23 12:20:42;;;;;;;;;;;4.70;99.90;;;;;;4997137;28;19920;-85
2022/01/23 12:23:08;;;;;;;;;;;4.80;99.90;;;;;;5007860;28;19922;-85
2022/01/23 12:25:41;;;;;;;;;;;4.80;99.90;;;;;;5003632;28;20008;-84
2022/01/23 12:28:31;;;;;;;;;;;4.90;99.90;;;;;;4992754;28;19913;-85
2022/01/23 12:30:58;;;;;;;;;;;5.00;99.90;;;;;;4975751;28;20273;-85
2022/01/23 12:33:29;;;;;;;;;;;5.00;99.90;;;;;;4975449;28;20567;-85
2022/01/23 12:36:03;;;;;;;;;;;5.00;99.90;;;;;;4991184;28;20016;-84
2022/01/23 12:38:31;;;;;;;;;;;4.90;99.90;;;;;;4975149;28;19917;-84
2022/01/23 12:41:13;;;;;;;;;;;4.90;99.90;;;;;;4997658;28;19918;-85
2022/01/23 12:43:38;;;;;;;;;;;4.80;99.90;;;;;;4991393;28;19953;-84
2022/01/23 12:46:05;;;;;;;;;;;4.80;99.90;;;;;;4975138;28;20011;-83
2022/01/23 12:48:35;;;;;;;;;;;4.80;99.90;;;;;;4991484;28;19914;-84
2022/01/23 12:51:03;;;;;;;;;;;4.70;99.90;;;;;;4991591;28;20451;-84
2022/01/23 12:53:58;;;;;;;;;;;4.70;99.90;;;;;;4988334;28;19914;-85
2022/01/23 12:56:30;;;;;;;;;;;4.70;99.90;;;;;;5002918;28;19921;-85
2022/01/23 12:59:05;;;;;;;;;;;4.70;99.90;;;;;;4973904;28;19931;-84
2022/01/23 13:01:31;;;;;;;;;;;4.60;99.90;;;;;;4989034;28;19921;-84
2022/01/23 13:03:58;;;;;;;;;;;4.60;99.90;;;;;;4987854;28;19925;-84
2022/01/23 13:06:57;;;;;;;;;;;4.60;99.90;;;;;;4971104;28;20372;-84
2022/01/23 13:12:03;;;;;;;;;;;4.70;99.90;;;;;;4996450;28;20008;-84
2022/01/23 13:14:36;;;;;;;;;;;4.80;99.90;;;;;;5004439;28;19918;-84
2022/01/23 13:17:25;;;;;;;;;;;4.90;99.90;;;;;;5005183;28;19913;-85
2022/01/23 13:30:45;;;;;;;;;;;5.00;99.90;;;;;;4980907;28;19925;-86
2022/01/23 13:33:19;;;;;;;;;;;5.00;99.90;;;;;;4973727;28;19915;-84
2022/01/23 13:35:50;;;;;;;;;;;5.00;99.90;;;;;;4967379;28;19918;-85
2022/01/23 13:38:16;;;;;;;;;;;5.00;99.90;;;;;;4987674;28;19922;-84
2022/01/23 13:40:43;;;;;;;;;;;5.00;99.90;;;;;;4985230;28;19914;-85
2022/01/23 13:59:38;;;;;;;;;;;4.80;99.90;;;;;;4989960;28;19980;-84
2022/01/23 14:02:15;;;;;;;;;;;4.70;99.90;;;;;;4969784;28;20296;-85
2022/01/23 14:04:48;;;;;;;;;;;4.70;99.90;;;;;;4991850;28;20020;-84
2022/01/23 14:07:32;;;;;;;;;;;4.70;99.90;;;;;;5002369;28;19918;-84
2022/01/23 14:10:18;;;;;;;;;;;4.60;99.90;;;;;;4988237;28;20285;-84
2022/01/23 14:12:44;;;;;;;;;;;4.60;99.90;;;;;;5018288;28;20355;-84
2022/01/23 14:15:13;;;;;;;;;;;4.60;99.90;;;;;;4957290;28;19922;-84
2022/01/23 14:17:39;;;;;;;;;;;4.60;99.90;;;;;;4980265;28;19914;-85
2022/01/23 14:20:07;;;;;;;;;;;4.50;99.90;;;;;;5009032;28;20372;-84
2022/01/23 14:22:33;;;;;;;;;;;4.50;99.90;;;;;;4967374;28;19968;-84
2022/01/23 14:25:08;;;;;;;;;;;4.50;99.90;;;;;;4987010;28;20451;-83
2022/01/23 14:27:35;;;;;;;;;;;4.50;99.90;;;;;;5017006;28;19913;-83
2022/01/23 14:30:04;;;;;;;;;;;4.50;99.90;;;;;;5003429;28;20371;-84
2022/01/23 14:32:40;;;;;;;;;;;4.40;99.90;;;;;;4961813;28;20328;-84
2022/01/23 14:35:26;;;;;;;;;;;4.40;99.90;;;;;;4972324;28;20372;-85
2022/01/23 14:37:52;;;;;;;;;;;4.40;99.90;;;;;;4974788;28;20016;-84
2022/01/23 14:40:25;;;;;;;;;;;4.40;99.90;;;;;;4974196;28;19954;-85
2022/01/23 14:43:03;;;;;;;;;;;4.40;99.90;;;;;;4991974;28;19925;-84
2022/01/23 14:45:30;;;;;;;;;;;4.40;99.90;;;;;;4989809;28;19914;-85
2022/01/23 14:47:55;;;;;;;;;;;4.40;99.90;;;;;;4984312;28;19914;-84
2022/01/23 14:50:23;;;;;;;;;;;4.40;99.90;;;;;;4987878;28;20492;-85
2022/01/23 14:52:49;;;;;;;;;;;4.40;99.90;;;;;;4972729;28;19917;-84
2022/01/23 14:55:15;;;;;;;;;;;4.40;99.90;;;;;;4974609;28;20025;-84
2022/01/23 14:57:41;;;;;;;;;;;4.50;99.90;;;;;;4992163;28;19965;-84
2022/01/23 15:00:08;;;;;;;;;;;4.40;99.90;;;;;;5024114;28;19922;-84
2022/01/23 15:02:34;;;;;;;;;;;4.40;99.90;;;;;;4974766;28;20565;-83
2022/01/23 15:05:02;;;;;;;;;;;4.40;99.90;;;;;;4975722;28;19921;-84
2022/01/23 15:07:35;;;;;;;;;;;4.40;99.90;;;;;;5024280;28;20451;-85
2022/01/23 15:10:01;;;;;;;;;;;4.30;99.90;;;;;;5002631;28;19919;-84
2022/01/23 15:12:26;;;;;;;;;;;4.30;99.90;;;;;;4982093;28;20228;-84
2022/01/23 15:14:52;;;;;;;;;;;4.30;99.90;;;;;;4972994;28;19929;-84
2022/01/23 15:17:20;;;;;;;;;;;4.30;99.90;;;;;;5006352;28;19953;-85
2022/01/23 15:19:46;;;;;;;;;;;4.30;99.90;;;;;;4990557;28;19917;-85
2022/01/23 15:22:12;;;;;;;;;;;4.20;99.90;;;;;;5022563;28;20292;-84
2022/01/23 15:24:38;;;;;;;;;;;4.20;99.90;;;;;;5004002;28;19914;-84
2022/01/23 15:27:04;;;;;;;;;;;4.20;99.90;;;;;;5000546;28;19918;-84
2022/01/23 15:29:29;;;;;;;;;;;4.20;99.90;;;;;;4982513;28;20440;-84
2022/01/23 15:31:55;;;;;;;;;;;4.10;99.90;;;;;;4991865;28;19921;-85
2022/01/23 15:34:21;;;;;;;;;;;4.10;99.90;;;;;;4975449;28;19918;-85
2022/01/23 15:36:47;;;;;;;;;;;4.10;99.90;;;;;;4981299;28;19949;-84
2022/01/23 15:39:13;;;;;;;;;;;4.00;99.90;;;;;;4985502;28;20075;-85
2022/01/23 15:41:39;;;;;;;;;;;4.00;99.90;;;;;;5002560;28;19921;-84
2022/01/23 15:44:05;;;;;;;;;;;4.00;99.90;;;;;;4986555;28;20001;-84
2022/01/23 15:46:31;;;;;;;;;;;4.00;99.90;;;;;;4995062;28;20565;-84
2022/01/23 15:48:56;;;;;;;;;;;4.00;99.90;;;;;;4988320;28;19918;-85
2022/01/23 15:51:22;;;;;;;;;;;3.90;99.90;;;;;;4973336;28;20392;-83
2022/01/23 15:53:47;;;;;;;;;;;3.90;99.90;;;;;;4956894;28;19917;-85
2022/01/23 15:56:13;;;;;;;;;;;3.80;99.90;;;;;;4972651;28;20571;-84
2022/01/23 15:58:38;;;;;;;;;;;3.80;99.90;;;;;;4973049;28;20008;-84
2022/01/23 16:01:04;;;;;;;;;;;3.80;99.90;;;;;;4972090;28;21203;-84
2022/01/23 16:03:30;;;;;;;;;;;3.80;99.90;;;;;;5009533;28;19918;-84
2022/01/23 16:05:56;;;;;;;;;;;3.80;99.90;;;;;;5002876;28;19925;-84
2022/01/23 16:08:23;;;;;;;;;;;3.70;99.90;;;;;;4996485;28;19914;-83
2022/01/23 16:10:48;;;;;;;;;;;3.70;99.90;;;;;;4970103;28;20009;-84
2022/01/23 16:13:14;;;;;;;;;;;3.80;99.90;;;;;;4985677;28;20399;-84
2022/01/23 16:15:43;;;;;;;;;;;3.70;99.90;;;;;;4985453;28;19930;-83
2022/01/23 16:18:09;;;;;;;;;;;3.70;99.90;;;;;;5002346;28;19929;-84
2022/01/23 16:20:36;;;;;;;;;;;3.70;99.90;;;;;;4984859;28;19918;-84
2022/01/23 16:23:05;;;;;;;;;;;3.60;99.90;;;;;;4988112;28;20308;-83
2022/01/23 16:25:31;;;;;;;;;;;3.60;99.90;;;;;;5005627;28;19968;-84
2022/01/23 16:27:56;;;;;;;;;;;3.60;99.90;;;;;;4984157;23;20097;-77
2022/01/23 16:30:23;;;;;;;;;;;3.60;99.90;;;;;;4988644;28;20012;-77
2022/01/23 16:32:49;;;;;;;;;;;3.60;99.90;;;;;;4990968;28;19921;-77
2022/01/23 16:35:19;;;;;;;;;;;3.60;99.90;;;;;;4992879;28;19921;-77
2022/01/23 16:37:45;;;;;;;;;;;3.60;99.90;;;;;;4974626;28;19921;-77
2022/01/23 16:40:11;;;;;;;;;;;3.50;99.90;;;;;;4973711;28;19918;-77
2022/01/23 16:42:37;;;;;;;;;;;3.50;99.90;;;;;;4959303;28;20654;-80
2022/01/23 16:45:03;;;;;;;;;;;3.50;99.90;;;;;;4967503;28;19914;-80
2022/01/23 16:47:28;;;;;;;;;;;3.50;99.90;;;;;;4970714;28;19923;-78
2022/01/23 16:49:55;;;;;;;;;;;3.50;99.90;;;;;;4954503;28;19918;-79
2022/01/23 16:52:21;;;;;;;;;;;3.50;99.90;;;;;;4968680;28;20691;-79
2022/01/23 16:54:47;;;;;;;;;;;3.50;99.90;;;;;;4969879;28;19926;-79
2022/01/23 16:57:14;;;;;;;;;;;3.50;99.90;;;;;;4976855;28;19922;-78
2022/01/23 16:59:40;;;;;;;;;;;3.50;99.90;;;;;;4963281;28;20316;-80
2022/01/23 17:02:06;;;;;;;;;;;3.50;99.90;;;;;;4969664;28;19922;-79
2022/01/23 17:04:33;;;;;;;;;;;3.50;99.90;;;;;;4971103;28;19933;-78
2022/01/23 17:07:00;;;;;;;;;;;3.50;99.90;;;;;;4966173;28;19925;-79
2022/01/23 17:09:29;;;;;;;;;;;3.50;99.90;;;;;;4975136;28;19933;-79
2022/01/23 17:11:55;;;;;;;;;;;3.40;99.90;;;;;;4969479;28;19924;-79
2022/01/23 17:14:20;;;;;;;;;;;3.40;99.90;;;;;;4970195;28;19922;-78
2022/01/23 17:16:46;;;;;;;;;;;3.40;99.90;;;;;;4971297;28;20605;-78
2022/01/23 17:19:11;;;;;;;;;;;3.40;99.90;;;;;;4973984;28;19933;-79
2022/01/23 17:21:37;;;;;;;;;;;3.40;99.90;;;;;;4970550;28;19922;-79
2022/01/23 17:24:02;;;;;;;;;;;3.40;99.90;;;;;;4970646;28;20369;-79
2022/01/23 17:26:28;;;;;;;;;;;3.40;99.90;;;;;;4972397;28;20006;-79
2022/01/23 17:28:54;;;;;;;;;;;3.40;99.90;;;;;;4964893;28;19933;-79
2022/01/23 17:31:19;;;;;;;;;;;3.40;99.90;;;;;;4968781;28;19922;-79
2022/01/23 17:33:45;;;;;;;;;;;3.30;99.90;;;;;;4958027;28;20389;-80
2022/01/23 17:36:11;;;;;;;;;;;3.30;99.90;;;;;;4960116;28;19922;-80
2022/01/23 17:38:38;;;;;;;;;;;3.30;99.90;;;;;;4949574;28;20651;-80
2022/01/23 17:41:04;;;;;;;;;;;3.30;99.90;;;;;;4966028;28;19918;-80
2022/01/23 17:43:30;;;;;;;;;;;3.30;99.90;;;;;;4980679;28;19942;-80
2022/01/23 17:45:55;;;;;;;;;;;3.30;99.90;;;;;;4980281;28;19922;-81
2022/01/23 17:51:01;;;;;;;;;;;3.30;99.90;;;;;;4984760;28;19918;-80
2022/01/23 17:53:30;;;;;;;;;;;3.30;99.90;;;;;;4964459;28;19914;-80
2022/01/23 17:55:56;;;;;;;;;;;3.30;99.90;;;;;;4964677;28;20016;-80
2022/01/23 17:58:22;;;;;;;;;;;3.30;99.90;;;;;;4974756;28;20525;-79
2022/01/23 18:00:48;;;;;;;;;;;3.30;99.90;;;;;;4969172;28;19914;-79
2022/01/23 18:03:16;;;;;;;;;;;3.30;99.90;;;;;;4965555;28;20320;-79
2022/01/23 18:05:44;;;;;;;;;;;3.30;99.90;;;;;;4971871;28;20411;-79
2022/01/23 18:08:09;;;;;;;;;;;3.30;99.90;;;;;;4973571;28;20384;-80
2022/01/23 18:10:35;;;;;;;;;;;3.30;99.90;;;;;;4981052;28;20005;-79
2022/01/23 18:13:02;;;;;;;;;;;3.30;99.90;;;;;;4965799;28;20009;-79
2022/01/23 18:15:27;;;;;;;;;;;3.20;99.90;;;;;;4965380;28;19923;-79
2022/01/23 18:17:53;;;;;;;;;;;3.30;99.90;;;;;;4970378;28;19924;-79